createdAt,value
2019-03-03T00:00:38.143Z,99797.53
2019-03-03T00:03:09.365Z,99796.81
2019-03-03T00:05:40.565Z,99788.61
2019-03-03T00:08:11.830Z,99791.23
2019-03-03T00:10:43.168Z,99784.52
2019-03-03T00:13:14.417Z,99785.29
2019-03-03T00:15:45.602Z,99801.99
2019-03-03T00:18:16.904Z,99798.13
2019-03-03T00:20:48.179Z,99794.27
2019-03-03T00:23:19.497Z,99800.31
2019-03-03T00:25:50.803Z,99803.84
2019-03-03T00:28:22.070Z,99786.30
2019-03-03T00:30:53.393Z,99781.80
2019-03-03T00:33:24.667Z,99801.67
2019-03-03T00:35:55.945Z,99791.78
2019-03-03T00:38:40.725Z,99779.03
2019-03-03T00:41:23.712Z,99773.36
2019-03-03T00:44:12.540Z,99777.63
2019-03-03T00:47:05.820Z,99785.98
2019-03-03T00:50:14.005Z,99776.00
2019-03-03T00:53:06.947Z,99776.00
2019-03-03T00:55:55.683Z,99773.05
2019-03-03T00:58:40.838Z,99765.10
2019-03-03T01:01:21.272Z,99774.85
2019-03-03T01:04:20.626Z,99780.03
2019-03-03T01:07:04.455Z,99780.17
2019-03-03T01:09:41.396Z,99764.78
2019-03-03T01:12:17.886Z,99778.80
2019-03-03T01:15:04.771Z,99766.10
2019-03-03T01:17:42.256Z,99745.65
2019-03-03T01:20:22.557Z,99768.11
2019-03-03T01:22:59.645Z,99755.34
2019-03-03T01:25:30.947Z,99750.00
2019-03-03T01:28:02.236Z,99750.62
2019-03-03T01:30:33.506Z,99728.63
2019-03-03T01:33:04.970Z,99747.77
2019-03-03T01:35:36.246Z,99735.43
2019-03-03T01:38:07.604Z,99739.69
2019-03-03T01:40:38.845Z,99730.97
2019-03-03T01:43:13.433Z,99730.34
2019-03-03T01:45:44.689Z,99728.94
2019-03-03T01:48:16.012Z,99716.95
2019-03-03T01:50:47.432Z,99711.27
2019-03-03T01:53:18.694Z,99702.02
2019-03-03T01:55:50.012Z,99699.39
2019-03-03T01:58:21.285Z,99696.05
2019-03-03T02:00:52.630Z,99694.93
2019-03-03T02:03:24.218Z,99716.53
2019-03-03T02:05:55.542Z,99695.79
2019-03-03T02:08:26.845Z,99683.80
2019-03-03T02:10:58.276Z,99694.78
2019-03-03T02:13:32.787Z,99676.23
2019-03-03T02:16:04.700Z,99676.50
2019-03-03T02:18:35.990Z,99659.40
2019-03-03T02:21:07.354Z,99662.03
2019-03-03T02:23:38.640Z,99656.16
2019-03-03T02:26:09.950Z,99660.91
2019-03-03T02:28:41.283Z,99638.62
2019-03-03T02:31:12.603Z,99625.46
2019-03-03T02:33:43.897Z,99629.07
2019-03-03T02:36:15.150Z,99617.23
2019-03-03T02:38:46.410Z,99605.63
2019-03-03T02:41:17.719Z,99607.41
2019-03-03T02:43:48.947Z,99612.52
2019-03-03T02:46:20.278Z,99613.28
2019-03-03T02:48:51.592Z,99618.33
2019-03-03T02:51:22.893Z,99602.81
2019-03-03T02:53:54.238Z,99603.91
2019-03-03T02:56:25.569Z,99596.20
2019-03-03T02:58:56.882Z,99594.19
2019-03-03T03:01:45.191Z,99595.44
2019-03-03T03:04:16.520Z,99596.57
2019-03-03T03:07:02.843Z,99584.94
2019-03-03T03:09:56.681Z,99597.02
2019-03-03T03:12:49.621Z,99577.13
2019-03-03T03:15:40.560Z,99575.00
2019-03-03T03:18:33.222Z,99580.41
2019-03-03T03:21:26.371Z,99572.67
2019-03-03T03:24:19.743Z,99578.98
2019-03-03T03:26:56.625Z,99568.57
2019-03-03T03:29:44.763Z,99591.22
2019-03-03T03:32:33.318Z,99582.98
2019-03-03T03:35:13.151Z,99569.83
2019-03-03T03:38:06.421Z,99573.07
2019-03-03T03:41:08.854Z,99571.47
2019-03-03T03:43:56.476Z,99571.81
2019-03-03T03:46:39.619Z,99563.09
2019-03-03T03:49:33.718Z,99557.13
2019-03-03T03:52:32.734Z,99546.70
2019-03-03T03:55:38.432Z,99544.37
2019-03-03T03:58:17.524Z,99555.30
2019-03-03T04:01:26.199Z,99546.73
2019-03-03T04:04:19.179Z,99544.77
2019-03-03T04:06:59.907Z,99551.91
2019-03-03T04:09:38.509Z,99551.75
2019-03-03T04:12:15.969Z,99568.84
2019-03-03T04:15:06.123Z,99551.20
2019-03-03T04:17:59.503Z,99549.94
2019-03-03T04:21:01.521Z,99563.50
2019-03-03T04:23:54.434Z,99559.58
2019-03-03T04:26:43.119Z,99552.81
2019-03-03T04:29:39.668Z,99559.27
2019-03-03T04:32:36.948Z,99549.36
2019-03-03T04:35:27.203Z,99551.69
2019-03-03T04:38:12.454Z,99572.51
2019-03-03T04:40:51.454Z,99550.24
2019-03-03T04:43:30.665Z,99547.83
2019-03-03T04:46:11.582Z,99540.25
2019-03-03T04:48:57.679Z,99527.00
2019-03-03T04:51:54.006Z,99550.48
2019-03-03T04:54:44.211Z,99535.11
2019-03-03T04:57:30.209Z,99545.87
2019-03-03T05:00:20.510Z,99534.70
2019-03-03T05:02:58.778Z,99525.38
2019-03-03T05:05:39.632Z,99519.72
2019-03-03T05:08:16.179Z,99517.55
2019-03-03T05:10:55.171Z,99508.46
2019-03-03T05:13:45.356Z,99506.44
2019-03-03T05:16:33.090Z,99505.45
2019-03-03T05:19:15.601Z,99502.92
2019-03-03T05:21:50.031Z,99493.64
2019-03-03T05:24:21.329Z,99496.20
2019-03-03T05:26:52.673Z,99489.95
2019-03-03T05:29:24.006Z,99488.54
2019-03-03T05:31:55.285Z,99485.30
2019-03-03T05:34:26.582Z,99488.48
2019-03-03T05:36:57.857Z,99488.48
2019-03-03T05:39:29.196Z,99488.84
2019-03-03T05:42:00.486Z,99482.13
2019-03-03T05:44:31.765Z,99487.41
2019-03-03T05:47:03.043Z,99470.61
2019-03-03T05:49:34.385Z,99475.27
2019-03-03T05:52:05.714Z,99464.97
2019-03-03T05:54:37.007Z,99496.75
2019-03-03T05:57:08.339Z,99472.49
2019-03-03T05:59:39.637Z,99468.92
2019-03-03T06:02:11.032Z,99467.84
2019-03-03T06:04:42.305Z,99457.48
2019-03-03T06:07:13.608Z,99467.23
2019-03-03T06:09:44.918Z,99464.37
2019-03-03T06:12:16.246Z,99447.01
2019-03-03T06:14:47.551Z,99458.84
2019-03-03T06:17:18.811Z,99455.81
2019-03-03T06:19:50.175Z,99452.63
2019-03-03T06:22:21.842Z,99457.98
2019-03-03T06:24:53.151Z,99456.00
2019-03-03T06:27:24.483Z,99450.83
2019-03-03T06:29:55.767Z,99454.16
2019-03-03T06:32:27.208Z,99451.59
2019-03-03T06:34:58.485Z,99449.27
2019-03-03T06:37:33.355Z,99458.93
2019-03-03T06:40:05.167Z,99464.89
2019-03-03T06:42:36.435Z,99456.24
2019-03-03T06:45:08.972Z,99449.48
2019-03-03T06:47:40.324Z,99454.92
2019-03-03T06:50:12.778Z,99448.56
2019-03-03T06:52:44.132Z,99464.38
2019-03-03T06:55:15.515Z,99470.03
2019-03-03T06:57:46.774Z,99453.37
2019-03-03T07:00:18.837Z,99461.10
2019-03-03T07:02:50.117Z,99459.69
2019-03-03T07:05:21.510Z,99468.16
2019-03-03T07:07:52.882Z,99460.41
2019-03-03T07:10:24.188Z,99454.72
2019-03-03T07:12:55.545Z,99456.67
2019-03-03T07:15:26.829Z,99460.86
2019-03-03T07:17:58.189Z,99456.67
2019-03-03T07:20:29.493Z,99455.82
2019-03-03T07:23:00.769Z,99458.58
2019-03-03T07:25:32.755Z,99452.95
2019-03-03T07:28:04.146Z,99457.28
2019-03-03T07:30:35.499Z,99456.19
2019-03-03T07:33:24.303Z,99465.80
2019-03-03T07:35:55.567Z,99456.34
2019-03-03T07:38:26.929Z,99461.75
2019-03-03T07:40:58.232Z,99453.01
2019-03-03T07:43:29.564Z,99449.63
2019-03-03T07:46:00.919Z,99458.73
2019-03-03T07:48:32.222Z,99451.47
2019-03-03T07:51:03.546Z,99461.52
2019-03-03T07:53:34.868Z,99464.36
2019-03-03T07:56:06.131Z,99459.28
2019-03-03T07:58:37.432Z,99461.05
2019-03-03T08:01:08.779Z,99466.55
2019-03-03T08:03:40.153Z,99466.53
2019-03-03T08:06:11.434Z,99463.77
2019-03-03T08:08:42.742Z,99469.94
2019-03-03T08:11:17.099Z,99460.53
2019-03-03T08:13:48.472Z,99474.87
2019-03-03T08:16:19.770Z,99465.33
2019-03-03T08:18:51.087Z,99466.84
2019-03-03T08:21:22.463Z,99469.69
2019-03-03T08:23:56.709Z,99470.78
2019-03-03T08:26:28.036Z,99445.66
2019-03-03T08:28:59.342Z,99459.39
2019-03-03T08:31:30.635Z,99473.02
2019-03-03T08:34:02.001Z,99468.24
2019-03-03T08:36:33.358Z,99463.98
2019-03-03T08:39:05.218Z,99465.30
2019-03-03T08:41:38.142Z,99475.20
2019-03-03T08:44:13.563Z,99463.81
2019-03-03T08:47:02.446Z,99459.87
2019-03-03T08:49:39.626Z,99473.52
2019-03-03T08:52:15.775Z,99473.73
2019-03-03T08:55:24.128Z,99470.09
2019-03-03T08:58:29.271Z,99456.95
2019-03-03T09:01:19.567Z,99462.63
2019-03-03T09:04:01.023Z,99462.94
2019-03-03T09:06:51.167Z,99462.84
2019-03-03T09:09:50.132Z,99470.09
2019-03-03T09:12:38.718Z,99474.74
2019-03-03T09:15:35.730Z,99459.28
2019-03-03T09:18:38.177Z,99451.40
2019-03-03T09:21:28.315Z,99470.33
2019-03-03T09:24:18.541Z,99466.84
2019-03-03T09:27:12.558Z,99458.56
2019-03-03T09:29:57.749Z,99456.70
2019-03-03T09:32:38.443Z,99461.71
2019-03-03T09:35:34.791Z,99447.78
2019-03-03T09:38:30.856Z,99449.70
2019-03-03T09:41:28.032Z,99451.94
2019-03-03T09:44:10.526Z,99457.16
2019-03-03T09:47:16.017Z,99455.90
2019-03-03T09:50:06.129Z,99455.80
2019-03-03T09:52:56.265Z,99466.84
2019-03-03T09:55:49.236Z,99451.61
2019-03-03T09:58:54.667Z,99462.44
2019-03-03T10:01:50.595Z,99450.56
2019-03-03T10:04:46.481Z,99468.36
2019-03-03T10:07:36.265Z,99446.45
2019-03-03T10:10:39.465Z,99447.28
2019-03-03T10:13:17.775Z,99447.47
2019-03-03T10:15:58.830Z,99452.69
2019-03-03T10:18:51.859Z,99448.19
2019-03-03T10:21:51.047Z,99441.34
2019-03-03T10:24:39.599Z,99439.58
2019-03-03T10:27:32.567Z,99438.56
2019-03-03T10:30:28.575Z,99429.55
2019-03-03T10:33:27.681Z,99435.32
2019-03-03T10:36:19.327Z,99429.73
2019-03-03T10:39:12.296Z,99439.90
2019-03-03T10:42:00.986Z,99435.39
2019-03-03T10:44:51.093Z,99449.94
2019-03-03T10:47:42.974Z,99429.20
2019-03-03T10:50:24.957Z,99420.08
2019-03-03T10:53:13.726Z,99439.11
2019-03-03T10:56:02.417Z,99431.51
2019-03-03T10:58:50.372Z,99443.59
2019-03-03T11:01:52.758Z,99441.88
2019-03-03T11:04:48.962Z,99433.33
2019-03-03T11:07:43.967Z,99441.45
2019-03-03T11:10:36.963Z,99442.83
2019-03-03T11:13:24.277Z,99441.71
2019-03-03T11:16:15.172Z,99429.37
2019-03-03T11:18:59.908Z,99431.75
2019-03-03T11:21:56.035Z,99434.27
2019-03-03T11:24:47.703Z,99460.70
2019-03-03T11:27:27.861Z,99441.12
2019-03-03T11:30:21.043Z,99442.33
2019-03-03T11:33:17.007Z,99444.25
2019-03-03T11:36:25.189Z,99414.27
2019-03-03T11:39:13.591Z,99427.63
2019-03-03T11:42:08.289Z,99432.38
2019-03-03T11:44:49.324Z,99428.26
2019-03-03T11:47:38.171Z,99404.73
2019-03-03T11:50:29.304Z,99412.16
2019-03-03T11:53:22.529Z,99404.75
2019-03-03T11:56:03.858Z,99406.30
2019-03-03T11:58:54.040Z,99390.48
2019-03-03T12:01:47.047Z,99394.36
2019-03-03T12:04:40.019Z,99371.97
2019-03-03T12:07:25.269Z,99397.85
2019-03-03T12:10:21.633Z,99397.02
2019-03-03T12:13:06.205Z,99390.02
2019-03-03T12:15:59.190Z,99392.09
2019-03-03T12:18:44.468Z,99384.49
2019-03-03T12:21:27.204Z,99389.30
2019-03-03T12:24:05.134Z,99381.41
2019-03-03T12:26:46.079Z,99363.53
2019-03-03T12:29:35.035Z,99371.90
2019-03-03T12:32:25.194Z,99377.73
2019-03-03T12:35:30.627Z,99375.28
2019-03-03T12:38:24.387Z,99354.67
2019-03-03T12:41:18.114Z,99354.38
2019-03-03T12:44:08.506Z,99356.67
2019-03-03T12:46:58.654Z,99358.34
2019-03-03T12:49:37.295Z,99361.92
2019-03-03T12:52:17.366Z,99358.45
2019-03-03T12:55:22.770Z,99351.39
2019-03-03T12:58:11.188Z,99348.77
2019-03-03T13:00:59.826Z,99360.63
2019-03-03T13:04:07.954Z,99335.95
2019-03-03T13:07:00.905Z,99338.59
2019-03-03T13:09:47.485Z,99330.22
2019-03-03T13:12:36.074Z,99325.77
2019-03-03T13:15:31.658Z,99320.31
2019-03-03T13:18:33.938Z,99317.12
2019-03-03T13:21:13.204Z,99316.83
2019-03-03T13:24:56.461Z,99314.13
2019-03-03T13:28:23.818Z,99321.45
2019-03-03T13:32:10.259Z,99310.92
2019-03-03T13:36:38.876Z,99314.77
2019-03-03T13:38:49.233Z,99304.15
2019-03-03T13:42:22.319Z,99307.43
2019-03-03T13:45:48.142Z,99293.68
2019-03-03T13:49:22.649Z,99292.83
2019-03-03T13:52:07.946Z,99286.34
2019-03-03T13:55:27.483Z,99291.90
2019-03-03T13:57:59.874Z,99280.61
2019-03-03T14:00:31.194Z,99285.42
2019-03-03T14:03:02.585Z,99282.39
2019-03-03T14:05:33.892Z,99284.10
2019-03-03T14:08:05.205Z,99274.77
2019-03-03T14:10:36.519Z,99259.81
2019-03-03T14:13:08.192Z,99271.10
2019-03-03T14:15:39.453Z,99262.23
2019-03-03T14:18:10.769Z,99266.29
2019-03-03T14:20:42.074Z,99262.05
2019-03-03T14:23:52.646Z,99255.56
2019-03-03T14:27:15.329Z,99243.42
2019-03-03T14:29:44.017Z,99245.03
2019-03-03T14:32:18.120Z,99246.06
2019-03-03T14:34:49.568Z,99246.63
2019-03-03T14:37:49.434Z,99245.50
2019-03-03T14:40:21.598Z,99234.20
2019-03-03T14:42:52.983Z,99234.73
2019-03-03T14:45:24.228Z,99237.94
2019-03-03T14:47:55.515Z,99234.38
2019-03-03T14:50:26.847Z,99232.88
2019-03-03T14:52:58.162Z,99219.77
2019-03-03T14:55:29.450Z,99229.45
2019-03-03T14:58:00.714Z,99224.56
2019-03-03T15:00:33.841Z,99214.30
2019-03-03T15:03:07.595Z,99212.41
2019-03-03T15:05:38.910Z,99187.06
2019-03-03T15:08:10.164Z,99198.25
2019-03-03T15:10:41.481Z,99173.21
2019-03-03T15:13:12.805Z,99169.87
2019-03-03T15:15:44.226Z,99188.16
2019-03-03T15:18:15.527Z,99185.63
2019-03-03T15:20:47.237Z,99181.66
2019-03-03T15:23:18.493Z,99164.59
2019-03-03T15:25:49.814Z,99171.77
2019-03-03T15:28:21.272Z,99168.44
2019-03-03T15:30:52.556Z,99173.72
2019-03-03T15:33:23.852Z,99165.30
2019-03-03T15:35:55.349Z,99144.12
2019-03-03T15:38:26.650Z,99151.08
2019-03-03T15:40:57.916Z,99149.45
2019-03-03T15:43:29.195Z,99139.59
2019-03-03T15:46:00.495Z,99142.07
2019-03-03T15:48:31.829Z,99136.30
2019-03-03T15:51:03.098Z,99140.33
2019-03-03T15:53:34.432Z,99128.00
2019-03-03T15:56:05.914Z,99128.93
2019-03-03T15:58:37.224Z,99128.46
2019-03-03T16:01:15.819Z,99114.11
2019-03-03T16:03:47.199Z,99111.02
2019-03-03T16:06:18.498Z,99112.95
2019-03-03T16:08:49.769Z,99126.80
2019-03-03T16:11:21.006Z,99107.68
2019-03-03T16:13:52.339Z,99104.27
2019-03-03T16:16:23.631Z,99100.30
2019-03-03T16:18:54.877Z,99091.42
2019-03-03T16:21:26.188Z,99096.23
2019-03-03T16:23:57.499Z,99085.22
2019-03-03T16:26:28.761Z,99077.77
2019-03-03T16:29:00.024Z,99078.08
2019-03-03T16:31:31.412Z,99067.29
2019-03-03T16:34:02.735Z,99071.16
2019-03-03T16:36:34.070Z,99074.65
2019-03-03T16:39:06.902Z,99065.42
2019-03-03T16:41:38.374Z,99071.31
2019-03-03T16:44:09.711Z,99056.53
2019-03-03T16:46:40.940Z,99061.16
2019-03-03T16:49:12.170Z,99054.68
2019-03-03T16:51:43.464Z,99073.08
2019-03-03T16:54:14.732Z,99045.31
2019-03-03T16:56:45.995Z,99051.76
2019-03-03T16:59:17.294Z,99032.27
2019-03-03T17:01:48.614Z,99030.06
2019-03-03T17:04:19.927Z,99035.61
2019-03-03T17:06:51.264Z,99032.70
2019-03-03T17:09:22.559Z,99042.52
2019-03-03T17:11:53.983Z,99018.02
2019-03-03T17:14:25.302Z,99020.56
2019-03-03T17:16:56.572Z,99007.78
2019-03-03T17:19:27.843Z,99015.55
2019-03-03T17:21:59.130Z,99018.96
2019-03-03T17:24:30.572Z,99008.14
2019-03-03T17:27:01.999Z,99007.25
2019-03-03T17:29:33.289Z,99010.16
2019-03-03T17:32:04.576Z,99008.05
2019-03-03T17:34:36.058Z,99018.23
2019-03-03T17:37:07.355Z,99010.95
2019-03-03T17:39:38.763Z,99014.21
2019-03-03T17:42:10.040Z,99010.31
2019-03-03T17:44:41.343Z,99004.27
2019-03-03T17:47:12.701Z,99012.51
2019-03-03T17:49:46.479Z,99000.23
2019-03-03T17:52:17.263Z,98991.84
2019-03-03T17:54:48.546Z,98990.72
2019-03-03T17:57:19.819Z,99000.88
2019-03-03T17:59:51.144Z,98988.75
2019-03-03T18:02:22.569Z,98991.39
2019-03-03T18:04:53.833Z,98981.48
2019-03-03T18:07:25.171Z,98973.45
2019-03-03T18:09:56.508Z,98984.97
2019-03-03T18:12:27.920Z,98983.68
2019-03-03T18:14:59.249Z,98974.30
2019-03-03T18:17:30.575Z,98965.34
2019-03-03T18:20:01.819Z,98970.48
2019-03-03T18:22:33.097Z,98957.28
2019-03-03T18:25:04.497Z,98961.62
2019-03-03T18:27:35.831Z,98958.53
2019-03-03T18:30:10.262Z,98954.56
2019-03-03T18:32:41.686Z,98969.75
2019-03-03T18:35:13.668Z,98949.96
2019-03-03T18:37:45.048Z,98947.70
2019-03-03T18:40:18.679Z,98932.61
2019-03-03T18:42:50.153Z,98941.17
2019-03-03T18:45:21.800Z,98934.59
2019-03-03T18:47:53.192Z,98937.06
2019-03-03T18:50:24.566Z,98923.62
2019-03-03T18:52:55.871Z,98918.90
2019-03-03T18:55:27.188Z,98915.20
2019-03-03T18:57:58.498Z,98922.04
2019-03-03T19:00:29.838Z,98910.11
2019-03-03T19:03:01.163Z,98906.59
2019-03-03T19:05:32.481Z,98904.56
2019-03-03T19:08:03.795Z,98888.45
2019-03-03T19:10:35.224Z,98876.11
2019-03-03T19:13:06.726Z,98870.11
2019-03-03T19:15:38.063Z,98876.79
2019-03-03T19:18:09.405Z,98867.88
2019-03-03T19:20:40.709Z,98866.48
2019-03-03T19:23:12.003Z,98851.89
2019-03-03T19:25:43.380Z,98850.92
2019-03-03T19:28:14.692Z,98854.40
2019-03-03T19:30:46.065Z,98846.70
2019-03-03T19:33:25.955Z,98844.13
2019-03-03T19:35:57.415Z,98836.61
2019-03-03T19:38:29.946Z,98832.69
2019-03-03T19:41:01.408Z,98837.84
2019-03-03T19:43:32.807Z,98829.20
2019-03-03T19:46:04.358Z,98818.51
2019-03-03T19:48:36.035Z,98828.34
2019-03-03T19:51:08.258Z,98829.16
2019-03-03T19:53:39.565Z,98802.04
2019-03-03T19:56:10.908Z,98801.91
2019-03-03T19:58:42.235Z,98811.70
2019-03-03T20:01:13.543Z,98805.61
2019-03-03T20:03:44.845Z,98793.66
2019-03-03T20:06:16.194Z,98784.06
2019-03-03T20:08:47.522Z,98825.11
2019-03-03T20:11:18.874Z,98794.38
2019-03-03T20:13:50.230Z,98794.38
2019-03-03T20:16:21.597Z,98787.98
2019-03-03T20:18:52.964Z,98781.17
2019-03-03T20:21:24.329Z,98777.69
2019-03-03T20:23:55.671Z,98771.22
2019-03-03T20:26:27.034Z,98785.22
2019-03-03T20:28:58.434Z,98778.67
2019-03-03T20:31:29.759Z,98782.50
2019-03-03T20:34:01.449Z,98776.97
2019-03-03T20:36:32.960Z,98757.42
2019-03-03T20:39:05.712Z,98750.92
2019-03-03T20:41:37.060Z,98737.38
2019-03-03T20:44:08.997Z,98740.27
2019-03-03T20:46:41.764Z,98748.06
2019-03-03T20:49:13.073Z,98739.89
2019-03-03T20:51:51.202Z,98745.16
2019-03-03T20:54:22.666Z,98742.78
2019-03-03T20:56:54.018Z,98738.10
2019-03-03T20:59:25.369Z,98735.77
2019-03-03T21:01:57.355Z,98718.58
2019-03-03T21:04:28.740Z,98732.45
2019-03-03T21:07:00.062Z,98722.70
2019-03-03T21:09:31.402Z,98706.27
2019-03-03T21:12:02.984Z,98705.55
2019-03-03T21:14:34.250Z,98715.38
2019-03-03T21:17:05.605Z,98703.04
2019-03-03T21:19:36.955Z,98704.73
2019-03-03T21:22:08.216Z,98696.06
2019-03-03T21:24:39.831Z,98719.38
2019-03-03T21:27:11.147Z,98713.00
2019-03-03T21:29:42.508Z,98700.75
2019-03-03T21:32:14.627Z,98709.89
2019-03-03T21:34:45.991Z,98701.97
2019-03-03T21:37:17.300Z,98678.95
2019-03-03T21:39:48.604Z,98667.92
2019-03-03T21:42:19.945Z,98678.35
2019-03-03T21:44:51.247Z,98677.00
2019-03-03T21:47:22.569Z,98672.50
2019-03-03T21:49:53.880Z,98667.57
2019-03-03T21:52:25.206Z,98673.83
2019-03-03T21:54:56.575Z,98684.13
2019-03-03T21:57:27.837Z,98662.67
2019-03-03T21:59:59.108Z,98653.30
2019-03-03T22:02:30.449Z,98658.55
2019-03-03T22:05:01.793Z,98662.67
2019-03-03T22:07:33.050Z,98643.22
2019-03-03T22:10:04.519Z,98641.20
2019-03-03T22:12:35.796Z,98631.61
2019-03-03T22:15:07.331Z,98630.30
2019-03-03T22:17:38.654Z,98616.59
2019-03-03T22:20:09.938Z,98626.81
2019-03-03T22:22:41.248Z,98621.52
2019-03-03T22:25:12.853Z,98601.50
2019-03-03T22:27:44.106Z,98602.33
2019-03-03T22:30:15.508Z,98578.09
2019-03-03T22:32:52.702Z,98562.02
2019-03-03T22:35:23.967Z,98550.98
2019-03-03T22:37:55.380Z,98559.48
2019-03-03T22:40:26.805Z,98529.50
2019-03-03T22:42:58.068Z,98519.91
2019-03-03T22:45:29.444Z,98503.08
2019-03-03T22:48:00.693Z,98505.74
2019-03-03T22:50:31.987Z,98485.20
2019-03-03T22:53:03.302Z,98462.28
2019-03-03T22:55:40.509Z,98465.91
2019-03-03T22:58:12.010Z,98462.76
2019-03-03T23:01:21.682Z,98468.89
2019-03-03T23:04:45.172Z,98463.23
2019-03-03T23:07:45.355Z,98459.03
2019-03-03T23:11:10.584Z,98411.27
2019-03-03T23:14:05.512Z,98418.92
2019-03-03T23:17:12.724Z,98422.07
2019-03-03T23:20:11.339Z,98430.70
2019-03-03T23:23:51.925Z,98425.66
2019-03-03T23:26:23.859Z,98447.73
2019-03-03T23:28:55.121Z,98458.64
2019-03-03T23:31:26.481Z,98457.48
2019-03-03T23:33:57.814Z,98451.22
2019-03-03T23:36:29.119Z,98465.61
2019-03-03T23:39:00.382Z,98446.98
2019-03-03T23:41:31.680Z,98478.95
2019-03-03T23:44:02.918Z,98493.20
2019-03-03T23:46:34.160Z,98480.72
2019-03-03T23:49:05.440Z,98473.12
2019-03-03T23:51:36.720Z,98481.80
2019-03-03T23:54:08.018Z,98470.52
2019-03-03T23:56:39.338Z,98471.60
2019-03-03T23:59:10.750Z,98459.08
